createdAt,value
2023-02-05T00:01:21.215Z,-0.11
2023-02-05T00:03:47.855Z,-0.13
2023-02-05T00:06:14.437Z,-0.17
2023-02-05T00:08:41.016Z,-0.22
2023-02-05T00:11:09.472Z,-0.29
2023-02-05T00:13:37.325Z,-0.33
2023-02-05T00:16:11.008Z,-0.37
2023-02-05T00:18:37.749Z,-0.40
2023-02-05T00:21:06.060Z,-0.38
2023-02-05T00:23:33.688Z,-0.41
2023-02-05T00:26:00.214Z,-0.41
2023-02-05T00:28:26.757Z,-0.43
2023-02-05T00:30:53.482Z,-0.48
2023-02-05T00:33:21.890Z,-0.52
2023-02-05T00:35:49.163Z,-0.58
2023-02-05T00:38:15.763Z,-0.64
2023-02-05T00:40:42.528Z,-0.71
2023-02-05T00:43:09.449Z,-0.75
2023-02-05T00:45:36.484Z,-0.78
2023-02-05T00:48:04.486Z,-0.83
2023-02-05T00:50:31.475Z,-0.83
2023-02-05T00:52:57.969Z,-0.86
2023-02-05T00:55:24.512Z,-0.91
2023-02-05T00:57:51.093Z,-0.92
2023-02-05T01:00:18.467Z,-0.95
2023-02-05T01:02:45.048Z,-0.94
2023-02-05T01:05:11.853Z,-0.96
2023-02-05T01:07:38.367Z,-0.98
2023-02-05T01:10:06.274Z,-0.99
2023-02-05T01:12:33.332Z,-1.03
2023-02-05T01:15:00.909Z,-1.06
2023-02-05T01:17:27.484Z,-1.08
2023-02-05T01:19:54.026Z,-1.12
2023-02-05T01:22:20.605Z,-1.15
2023-02-05T01:24:47.315Z,-1.16
2023-02-05T01:27:13.857Z,-1.17
2023-02-05T01:29:40.447Z,-1.21
2023-02-05T01:32:07.027Z,-1.24
2023-02-05T01:34:33.568Z,-1.25
2023-02-05T01:37:00.149Z,-1.28
2023-02-05T01:39:26.720Z,-1.30
2023-02-05T01:41:53.336Z,-1.33
2023-02-05T01:44:25.261Z,-1.32
2023-02-05T01:46:53.262Z,-1.35
2023-02-05T01:49:38.714Z,-1.36
2023-02-05T01:52:12.140Z,-1.41
2023-02-05T01:54:42.177Z,-1.42
2023-02-05T01:57:11.850Z,-1.44
2023-02-05T01:59:40.712Z,-1.42
2023-02-05T02:02:07.918Z,-1.44
2023-02-05T02:04:38.561Z,-1.45
2023-02-05T02:07:05.847Z,-1.46
2023-02-05T02:09:33.982Z,-1.48
2023-02-05T02:12:01.045Z,-1.50
2023-02-05T02:14:29.389Z,-1.51
2023-02-05T02:16:55.939Z,-1.51
2023-02-05T02:19:32.891Z,-1.52
2023-02-05T02:22:12.980Z,-1.52
2023-02-05T02:24:51.305Z,-1.54
2023-02-05T02:27:32.860Z,-1.56
2023-02-05T02:30:09.150Z,-1.58
2023-02-05T02:32:47.366Z,-1.59
2023-02-05T02:35:19.841Z,-1.60
2023-02-05T02:38:01.269Z,-1.66
2023-02-05T02:40:37.121Z,-1.72
2023-02-05T02:43:09.312Z,-1.80
2023-02-05T02:45:42.116Z,-1.87
2023-02-05T02:48:10.645Z,-1.88
2023-02-05T02:50:41.469Z,-1.93
2023-02-05T02:53:20.958Z,-1.92
2023-02-05T02:55:49.115Z,-1.94
2023-02-05T02:58:20.434Z,-1.97
2023-02-05T03:00:48.061Z,-2.00
2023-02-05T03:03:17.642Z,-1.98
2023-02-05T03:05:45.635Z,-1.99
2023-02-05T03:08:21.651Z,-1.99
2023-02-05T03:10:53.038Z,-1.99
2023-02-05T03:13:19.918Z,-2.02
2023-02-05T03:15:52.132Z,-2.06
2023-02-05T03:18:22.900Z,-2.12
2023-02-05T03:20:58.151Z,-2.16
2023-02-05T03:23:27.032Z,-2.17
2023-02-05T03:25:53.837Z,-2.20
2023-02-05T03:28:25.942Z,-2.20
2023-02-05T03:30:59.011Z,-2.21
2023-02-05T03:33:33.475Z,-2.22
2023-02-05T03:36:21.018Z,-2.22
2023-02-05T03:38:57.060Z,-2.27
2023-02-05T03:41:53.619Z,-2.32
2023-02-05T03:44:54.686Z,-2.35
2023-02-05T03:47:37.986Z,-2.33
2023-02-05T03:50:07.479Z,-2.32
2023-02-05T03:52:37.737Z,-2.30
2023-02-05T03:55:11.330Z,-2.30
2023-02-05T03:57:43.466Z,-2.29
2023-02-05T04:00:12.029Z,-2.27
2023-02-05T04:02:43.350Z,-2.25
2023-02-05T04:05:13.449Z,-2.24
2023-02-05T04:07:41.756Z,-2.21
2023-02-05T04:10:10.019Z,-2.17
2023-02-05T04:12:37.349Z,-2.13
2023-02-05T04:15:07.412Z,-2.10
2023-02-05T04:17:34.983Z,-2.09
2023-02-05T04:20:02.219Z,-2.03
2023-02-05T04:22:30.058Z,-2.01
2023-02-05T04:24:57.098Z,-1.98
2023-02-05T04:27:23.716Z,-1.96
2023-02-05T04:29:50.845Z,-1.97
2023-02-05T04:32:17.487Z,-1.99
2023-02-05T04:34:44.064Z,-1.99
2023-02-05T04:37:12.354Z,-1.98
2023-02-05T04:39:39.601Z,-1.98
2023-02-05T04:42:06.151Z,-1.99
2023-02-05T04:44:32.741Z,-1.96
2023-02-05T04:46:59.752Z,-1.96
2023-02-05T04:49:26.323Z,-1.94
2023-02-05T04:51:52.827Z,-1.93
2023-02-05T04:54:19.362Z,-1.90
2023-02-05T04:56:46.988Z,-1.88
2023-02-05T04:59:13.531Z,-1.85
2023-02-05T05:01:40.751Z,-1.81
2023-02-05T05:04:07.328Z,-1.79
2023-02-05T05:06:33.878Z,-1.77
2023-02-05T05:09:00.417Z,-1.76
2023-02-05T05:11:26.967Z,-1.76
2023-02-05T05:13:53.503Z,-1.74
2023-02-05T05:16:20.169Z,-1.71
2023-02-05T05:18:46.863Z,-1.69
2023-02-05T05:21:13.472Z,-1.68
2023-02-05T05:23:40.020Z,-1.65
2023-02-05T05:26:08.296Z,-1.63
2023-02-05T05:28:35.554Z,-1.62
2023-02-05T05:31:11.043Z,-1.60
2023-02-05T05:33:37.928Z,-1.61
2023-02-05T05:36:05.706Z,-1.61
2023-02-05T05:38:32.274Z,-1.60
2023-02-05T05:41:17.609Z,-1.63
2023-02-05T05:43:46.969Z,-1.71
2023-02-05T05:46:26.652Z,-1.76
2023-02-05T05:48:55.753Z,-1.79
2023-02-05T05:51:23.109Z,-1.82
2023-02-05T05:53:49.962Z,-1.89
2023-02-05T05:56:17.080Z,-1.95
2023-02-05T05:58:43.705Z,-1.99
2023-02-05T06:01:11.116Z,-1.96
2023-02-05T06:03:37.691Z,-1.97
2023-02-05T06:06:05.978Z,-1.96
2023-02-05T06:08:32.922Z,-1.94
2023-02-05T06:10:59.814Z,-1.95
2023-02-05T06:13:28.213Z,-1.98
2023-02-05T06:15:54.971Z,-2.03
2023-02-05T06:18:23.699Z,-2.00
2023-02-05T06:20:50.750Z,-2.04
2023-02-05T06:23:17.371Z,-2.02
2023-02-05T06:25:43.957Z,-1.97
2023-02-05T06:28:10.585Z,-1.92
2023-02-05T06:30:37.303Z,-1.84
2023-02-05T06:33:03.939Z,-1.81
2023-02-05T06:35:30.461Z,-1.78
2023-02-05T06:37:57.017Z,-1.86
2023-02-05T06:40:25.860Z,-1.97
2023-02-05T06:42:53.447Z,-1.92
2023-02-05T06:45:19.988Z,-1.83
2023-02-05T06:47:46.612Z,-1.77
2023-02-05T06:50:13.422Z,-1.74
2023-02-05T06:52:40.011Z,-1.68
2023-02-05T06:55:06.691Z,-1.64
2023-02-05T06:57:33.869Z,-1.58
2023-02-05T07:00:00.435Z,-1.60
2023-02-05T07:02:27.203Z,-1.57
2023-02-05T07:04:53.754Z,-1.65
2023-02-05T07:07:20.311Z,-1.64
2023-02-05T07:09:46.919Z,-1.58
2023-02-05T07:12:13.426Z,-1.52
2023-02-05T07:14:40.779Z,-1.57
2023-02-05T07:17:08.015Z,-1.56
2023-02-05T07:19:35.094Z,-1.56
2023-02-05T07:22:01.703Z,-1.49
2023-02-05T07:24:28.218Z,-1.46
2023-02-05T07:26:54.721Z,-1.50
2023-02-05T07:29:21.558Z,-1.50
2023-02-05T07:31:51.152Z,-1.45
2023-02-05T07:34:17.803Z,-1.35
2023-02-05T07:36:44.455Z,-1.33
2023-02-05T07:39:11.171Z,-1.30
2023-02-05T07:41:37.663Z,-1.24
2023-02-05T07:44:05.141Z,-1.23
2023-02-05T07:46:31.774Z,-1.21
2023-02-05T07:48:58.439Z,-1.17
2023-02-05T07:51:25.982Z,-1.16
2023-02-05T07:53:53.326Z,-1.07
2023-02-05T07:56:23.003Z,-0.99
2023-02-05T07:58:49.536Z,-0.98
2023-02-05T08:01:16.205Z,-0.91
2023-02-05T08:03:43.282Z,-0.90
2023-02-05T08:06:13.899Z,-0.96
2023-02-05T08:08:40.459Z,-1.08
2023-02-05T08:11:07.284Z,-1.14
2023-02-05T08:13:34.193Z,-1.07
2023-02-05T08:16:05.260Z,-0.92
2023-02-05T08:18:31.904Z,-0.87
2023-02-05T08:20:58.511Z,-0.82
2023-02-05T08:23:25.156Z,-0.84
2023-02-05T08:25:55.985Z,-0.88
2023-02-05T08:28:22.567Z,-0.91
2023-02-05T08:30:49.107Z,-0.79
2023-02-05T08:33:15.789Z,-0.70
2023-02-05T08:35:42.337Z,-0.69
2023-02-05T08:38:08.871Z,-0.63
2023-02-05T08:40:36.163Z,-0.54
2023-02-05T08:43:02.778Z,-0.45
2023-02-05T08:45:29.957Z,-0.37
2023-02-05T08:47:56.721Z,-0.33
2023-02-05T08:50:23.498Z,-0.29
2023-02-05T08:52:50.061Z,-0.29
2023-02-05T08:55:26.549Z,-0.25
2023-02-05T08:57:53.066Z,-0.11
2023-02-05T09:00:21.104Z,-0.01
2023-02-05T09:02:47.769Z,0.02
2023-02-05T09:05:14.303Z,0.05
2023-02-05T09:07:41.042Z,0.08
2023-02-05T09:10:09.669Z,0.16
2023-02-05T09:12:36.388Z,0.23
2023-02-05T09:15:02.917Z,0.17
2023-02-05T09:17:29.430Z,0.18
2023-02-05T09:19:56.200Z,0.14
2023-02-05T09:22:22.822Z,0.12
2023-02-05T09:24:49.471Z,0.07
2023-02-05T09:27:16.046Z,0.10
2023-02-05T09:29:42.889Z,0.23
2023-02-05T09:32:09.392Z,0.24
2023-02-05T09:34:35.913Z,0.26
2023-02-05T09:37:02.443Z,0.12
2023-02-05T09:40:13.093Z,0.12
2023-02-05T09:42:32.250Z,0.24
2023-02-05T09:45:20.694Z,0.29
2023-02-05T09:48:02.402Z,0.34
2023-02-05T09:50:30.502Z,0.43
2023-02-05T09:53:01.978Z,0.45
2023-02-05T09:55:34.756Z,0.52
2023-02-05T09:58:12.381Z,0.62
2023-02-05T10:01:00.975Z,0.64
2023-02-05T10:03:42.456Z,0.70
2023-02-05T10:06:27.006Z,0.74
2023-02-05T10:09:04.071Z,0.91
2023-02-05T10:11:49.263Z,0.93
2023-02-05T10:14:33.930Z,0.88
2023-02-05T10:17:38.367Z,0.88
2023-02-05T10:20:27.343Z,0.88
2023-02-05T10:23:09.376Z,0.89
2023-02-05T10:25:54.968Z,1.02
2023-02-05T10:28:40.737Z,1.03
2023-02-05T10:31:32.008Z,1.06
2023-02-05T10:34:46.441Z,0.98
2023-02-05T10:37:18.900Z,1.10
2023-02-05T10:39:47.086Z,1.27
2023-02-05T10:42:24.068Z,1.28
2023-02-05T10:44:56.502Z,1.47
2023-02-05T10:47:43.570Z,1.49
2023-02-05T10:50:43.609Z,1.58
2023-02-05T10:53:10.131Z,1.53
2023-02-05T10:55:36.830Z,1.69
2023-02-05T10:58:26.010Z,1.78
2023-02-05T11:00:52.548Z,1.87
2023-02-05T11:03:19.845Z,2.03
2023-02-05T11:05:47.173Z,1.85
2023-02-05T11:08:34.852Z,2.08
2023-02-05T11:11:02.242Z,2.25
2023-02-05T11:13:30.134Z,2.42
2023-02-05T11:16:05.004Z,2.60
2023-02-05T11:18:55.743Z,2.58
2023-02-05T11:21:22.254Z,2.40
2023-02-05T11:23:58.063Z,2.55
2023-02-05T11:26:27.937Z,2.61
2023-02-05T11:28:54.610Z,2.65
2023-02-05T11:31:25.806Z,2.70
2023-02-05T11:34:09.331Z,2.72
2023-02-05T11:36:37.609Z,2.72
2023-02-05T11:39:05.522Z,2.79
2023-02-05T11:41:53.877Z,2.86
2023-02-05T11:44:32.250Z,2.89
2023-02-05T11:47:00.224Z,2.97
2023-02-05T11:49:32.485Z,2.97
2023-02-05T11:51:59.179Z,3.00
2023-02-05T11:54:31.672Z,3.07
2023-02-05T11:57:06.646Z,3.12
2023-02-05T11:59:34.397Z,3.10
2023-02-05T12:02:29.558Z,3.11
2023-02-05T12:05:25.052Z,3.05
2023-02-05T12:08:01.600Z,3.01
2023-02-05T12:11:00.957Z,2.67
2023-02-05T12:14:05.243Z,2.76
2023-02-05T12:16:48.827Z,2.65
2023-02-05T12:19:20.853Z,2.88
2023-02-05T12:21:59.856Z,2.72
2023-02-05T12:24:43.429Z,2.75
2023-02-05T12:27:34.244Z,2.98
2023-02-05T12:30:15.991Z,2.91
2023-02-05T12:33:13.463Z,3.06
2023-02-05T12:35:58.291Z,3.09
2023-02-05T12:38:38.079Z,3.01
2023-02-05T12:41:26.528Z,3.18
2023-02-05T12:43:56.339Z,3.05
2023-02-05T12:46:46.327Z,3.10
2023-02-05T12:49:35.138Z,3.18
2023-02-05T12:52:18.679Z,3.32
2023-02-05T12:54:57.907Z,3.37
2023-02-05T12:57:29.084Z,3.57
2023-02-05T12:59:58.900Z,3.73
2023-02-05T13:02:38.889Z,3.86
2023-02-05T13:05:22.132Z,4.12
2023-02-05T13:07:54.182Z,4.25
2023-02-05T13:10:26.906Z,4.49
2023-02-05T13:12:59.541Z,4.74
2023-02-05T13:15:30.681Z,4.88
2023-02-05T13:18:02.164Z,4.85
2023-02-05T13:20:51.810Z,4.75
2023-02-05T13:23:37.172Z,4.73
2023-02-05T13:26:16.297Z,4.89
2023-02-05T13:28:47.465Z,4.81
2023-02-05T13:31:31.273Z,4.61
2023-02-05T13:34:03.448Z,4.50
2023-02-05T13:36:41.317Z,4.42
2023-02-05T13:40:00.573Z,4.20
2023-02-05T13:42:43.715Z,4.29
2023-02-05T13:45:45.616Z,4.29
2023-02-05T13:48:25.684Z,4.31
2023-02-05T13:51:29.532Z,4.35
2023-02-05T13:54:23.214Z,4.27
2023-02-05T13:57:15.406Z,4.01
2023-02-05T13:59:46.556Z,3.93
2023-02-05T14:02:37.657Z,3.87
2023-02-05T14:05:04.268Z,3.64
2023-02-05T14:07:35.881Z,3.71
2023-02-05T14:10:02.715Z,3.52
2023-02-05T14:12:31.082Z,3.53
2023-02-05T14:15:15.578Z,3.40
2023-02-05T14:17:45.315Z,3.37
2023-02-05T14:20:24.036Z,3.30
2023-02-05T14:23:03.028Z,3.30
2023-02-05T14:25:36.332Z,3.04
2023-02-05T14:28:04.369Z,3.03
2023-02-05T14:30:30.946Z,3.07
2023-02-05T14:33:02.592Z,3.04
2023-02-05T14:35:31.549Z,2.89
2023-02-05T14:38:22.527Z,2.81
2023-02-05T14:41:05.242Z,2.70
2023-02-05T14:43:34.186Z,2.70
2023-02-05T14:46:07.831Z,2.72
2023-02-05T14:48:39.098Z,2.75
2023-02-05T14:51:25.915Z,2.64
2023-02-05T14:54:15.448Z,2.56
2023-02-05T14:56:46.770Z,2.54
2023-02-05T14:59:29.835Z,2.57
2023-02-05T15:01:57.384Z,2.46
2023-02-05T15:04:28.348Z,2.47
2023-02-05T15:06:55.039Z,2.37
2023-02-05T15:09:40.203Z,2.34
2023-02-05T15:12:25.042Z,2.35
2023-02-05T15:14:52.212Z,2.44
2023-02-05T15:17:27.583Z,2.30
2023-02-05T15:19:56.373Z,2.23
2023-02-05T15:22:36.973Z,2.27
2023-02-05T15:25:09.606Z,2.19
2023-02-05T15:27:44.910Z,2.19
2023-02-05T15:30:18.510Z,2.13
2023-02-05T15:32:52.252Z,2.14
2023-02-05T15:35:25.737Z,2.10
2023-02-05T15:37:57.713Z,2.04
2023-02-05T15:40:27.494Z,2.03
2023-02-05T15:42:59.062Z,2.03
2023-02-05T15:45:34.415Z,2.03
2023-02-05T15:48:03.634Z,1.98
2023-02-05T15:50:30.793Z,1.97
2023-02-05T15:52:57.874Z,1.92
2023-02-05T15:55:26.950Z,1.90
2023-02-05T15:57:58.060Z,1.90
2023-02-05T16:00:27.419Z,1.89
2023-02-05T16:02:56.882Z,1.82
2023-02-05T16:05:24.032Z,1.81
2023-02-05T16:07:58.783Z,1.81
2023-02-05T16:10:27.685Z,1.78
2023-02-05T16:13:20.952Z,1.71
2023-02-05T16:16:08.343Z,1.66
2023-02-05T16:18:38.654Z,1.65
2023-02-05T16:21:14.148Z,1.56
2023-02-05T16:23:44.429Z,1.49
2023-02-05T16:26:19.645Z,1.45
2023-02-05T16:28:48.856Z,1.40
2023-02-05T16:31:18.564Z,1.40
2023-02-05T16:33:56.556Z,1.31
2023-02-05T16:36:25.018Z,1.31
2023-02-05T16:38:59.689Z,1.29
2023-02-05T16:41:34.984Z,1.27
2023-02-05T16:44:06.692Z,1.15
2023-02-05T16:46:35.064Z,1.14
2023-02-05T16:49:22.089Z,1.13
2023-02-05T16:51:48.515Z,1.15
2023-02-05T16:54:18.014Z,1.14
2023-02-05T16:56:48.897Z,1.15
2023-02-05T16:59:19.509Z,1.06
2023-02-05T17:01:46.158Z,1.03
2023-02-05T17:04:32.125Z,0.99
2023-02-05T17:07:00.261Z,0.98
2023-02-05T17:09:33.884Z,0.90
2023-02-05T17:12:22.864Z,0.89
2023-02-05T17:14:57.514Z,0.78
2023-02-05T17:17:25.357Z,0.78
2023-02-05T17:20:16.877Z,0.77
2023-02-05T17:22:58.312Z,0.77
2023-02-05T17:25:25.533Z,0.82
2023-02-05T17:27:52.124Z,0.77
2023-02-05T17:30:19.635Z,0.71
2023-02-05T17:32:46.995Z,0.66
2023-02-05T17:35:14.870Z,0.58
2023-02-05T17:37:41.447Z,0.50
2023-02-05T17:40:08.889Z,0.49
2023-02-05T17:42:35.500Z,0.50
2023-02-05T17:45:02.031Z,0.55
2023-02-05T17:47:28.616Z,0.57
2023-02-05T17:49:55.262Z,0.53
2023-02-05T17:52:21.745Z,0.48
2023-02-05T17:54:48.370Z,0.46
2023-02-05T17:57:15.313Z,0.50
2023-02-05T17:59:44.690Z,0.48
2023-02-05T18:02:12.408Z,0.49
2023-02-05T18:04:39.440Z,0.50
2023-02-05T18:07:15.363Z,0.51
2023-02-05T18:09:41.933Z,0.46
2023-02-05T18:12:08.448Z,0.45
2023-02-05T18:14:34.926Z,0.42
2023-02-05T18:17:01.725Z,0.44
2023-02-05T18:19:29.470Z,0.43
2023-02-05T18:21:55.966Z,0.40
2023-02-05T18:24:22.471Z,0.37
2023-02-05T18:26:52.619Z,0.34
2023-02-05T18:29:21.427Z,0.28
2023-02-05T18:31:48.742Z,0.25
2023-02-05T18:34:15.519Z,0.23
2023-02-05T18:36:42.053Z,0.18
2023-02-05T18:39:09.832Z,0.13
2023-02-05T18:41:37.062Z,0.08
2023-02-05T18:44:03.913Z,0.03
2023-02-05T18:46:30.627Z,-0.02
2023-02-05T18:48:57.168Z,-0.06
2023-02-05T18:51:23.865Z,-0.09
2023-02-05T18:53:50.454Z,-0.13
2023-02-05T18:56:22.223Z,-0.18
2023-02-05T18:59:01.397Z,-0.25
2023-02-05T19:01:30.103Z,-0.27
2023-02-05T19:04:01.128Z,-0.31
2023-02-05T19:06:27.930Z,-0.35
2023-02-05T19:08:56.449Z,-0.38
2023-02-05T19:11:24.581Z,-0.44
2023-02-05T19:13:59.225Z,-0.50
2023-02-05T19:16:27.407Z,-0.55
2023-02-05T19:18:53.960Z,-0.57
2023-02-05T19:21:21.347Z,-0.59
2023-02-05T19:23:53.554Z,-0.61
2023-02-05T19:26:22.556Z,-0.64
2023-02-05T19:28:55.964Z,-0.71
2023-02-05T19:31:27.736Z,-0.75
2023-02-05T19:33:55.332Z,-0.81
2023-02-05T19:36:22.585Z,-0.84
2023-02-05T19:38:49.420Z,-0.86
2023-02-05T19:41:20.728Z,-0.88
2023-02-05T19:43:55.112Z,-0.91
2023-02-05T19:46:28.552Z,-0.93
2023-02-05T19:48:56.277Z,-0.98
2023-02-05T19:51:22.967Z,-0.98
2023-02-05T19:53:49.613Z,-1.03
2023-02-05T19:56:21.600Z,-1.06
2023-02-05T19:58:50.644Z,-1.09
2023-02-05T20:01:23.741Z,-1.12
2023-02-05T20:03:55.608Z,-1.13
2023-02-05T20:06:23.755Z,-1.16
2023-02-05T20:08:50.407Z,-1.17
2023-02-05T20:11:17.964Z,-1.19
2023-02-05T20:13:45.119Z,-1.19
2023-02-05T20:16:18.617Z,-1.22
2023-02-05T20:18:45.550Z,-1.23
2023-02-05T20:21:18.808Z,-1.28
2023-02-05T20:23:46.164Z,-1.30
2023-02-05T20:26:14.369Z,-1.33
2023-02-05T20:29:00.558Z,-1.37
2023-02-05T20:31:34.771Z,-1.39
2023-02-05T20:34:06.080Z,-1.42
2023-02-05T20:36:33.967Z,-1.42
2023-02-05T20:39:02.868Z,-1.48
2023-02-05T20:41:29.451Z,-1.50
2023-02-05T20:43:57.143Z,-1.50
2023-02-05T20:46:24.067Z,-1.50
2023-02-05T20:48:50.879Z,-1.50
2023-02-05T20:51:18.964Z,-1.52
2023-02-05T20:53:45.837Z,-1.55
2023-02-05T20:56:18.371Z,-1.54
2023-02-05T20:58:44.910Z,-1.58
2023-02-05T21:01:15.794Z,-1.60
2023-02-05T21:03:43.352Z,-1.69
2023-02-05T21:06:10.817Z,-1.71
2023-02-05T21:08:43.349Z,-1.75
2023-02-05T21:11:10.296Z,-1.75
2023-02-05T21:13:37.200Z,-1.80
2023-02-05T21:16:04.290Z,-1.84
2023-02-05T21:18:31.005Z,-1.89
2023-02-05T21:21:12.414Z,-1.90
2023-02-05T21:23:39.051Z,-1.91
2023-02-05T21:26:06.337Z,-1.94
2023-02-05T21:28:33.397Z,-1.94
2023-02-05T21:31:09.330Z,-1.93
2023-02-05T21:33:36.232Z,-1.92
2023-02-05T21:36:04.622Z,-1.92
2023-02-05T21:38:34.648Z,-1.91
2023-02-05T21:41:06.864Z,-1.94
2023-02-05T21:43:33.570Z,-1.95
2023-02-05T21:46:08.458Z,-1.97
2023-02-05T21:48:35.410Z,-1.97
2023-02-05T21:51:07.348Z,-2.02
2023-02-05T21:53:33.952Z,-2.00
2023-02-05T21:56:02.476Z,-2.00
2023-02-05T21:58:31.916Z,-2.04
2023-02-05T22:01:13.285Z,-2.09
2023-02-05T22:03:41.011Z,-2.17
2023-02-05T22:06:08.595Z,-2.23
2023-02-05T22:08:36.357Z,-2.28
2023-02-05T22:11:05.430Z,-2.31
2023-02-05T22:13:36.410Z,-2.34
2023-02-05T22:16:08.423Z,-2.39
2023-02-05T22:18:35.435Z,-2.44
2023-02-05T22:21:10.038Z,-2.48
2023-02-05T22:23:36.655Z,-2.49
2023-02-05T22:26:03.303Z,-2.49
2023-02-05T22:28:30.147Z,-2.51
2023-02-05T22:31:05.310Z,-2.54
2023-02-05T22:33:32.628Z,-2.51
2023-02-05T22:35:59.743Z,-2.49
2023-02-05T22:38:27.055Z,-2.47
2023-02-05T22:40:53.922Z,-2.46
2023-02-05T22:43:21.199Z,-2.47
2023-02-05T22:45:47.737Z,-2.48
2023-02-05T22:48:14.365Z,-2.49
2023-02-05T22:50:41.729Z,-2.47
2023-02-05T22:53:08.899Z,-2.45
2023-02-05T22:55:36.584Z,-2.44
2023-02-05T22:58:04.110Z,-2.43
2023-02-05T23:00:31.384Z,-2.44
2023-02-05T23:02:59.427Z,-2.44
2023-02-05T23:05:30.312Z,-2.42
2023-02-05T23:07:56.879Z,-2.50
2023-02-05T23:10:23.988Z,-2.48
2023-02-05T23:12:50.591Z,-2.47
2023-02-05T23:15:17.223Z,-2.48
2023-02-05T23:17:43.751Z,-2.47
2023-02-05T23:20:10.902Z,-2.48
2023-02-05T23:22:37.460Z,-2.49
2023-02-05T23:25:05.520Z,-2.44
2023-02-05T23:27:32.840Z,-2.41
2023-02-05T23:29:59.965Z,-2.47
2023-02-05T23:32:26.590Z,-2.42
2023-02-05T23:34:53.096Z,-2.40
2023-02-05T23:37:19.615Z,-2.37
2023-02-05T23:39:46.237Z,-2.39
2023-02-05T23:42:12.892Z,-2.42
2023-02-05T23:44:39.389Z,-2.51
2023-02-05T23:47:05.949Z,-2.43
2023-02-05T23:49:32.461Z,-2.33
2023-02-05T23:51:59.182Z,-2.32
2023-02-05T23:54:25.713Z,-2.24
2023-02-05T23:56:52.546Z,-2.21
2023-02-05T23:59:19.247Z,-2.19
